sensor_id;sensor_type;location;lat;lon;timestamp;temperature;humidity
1351;DHT22;669;50.206;9.998;2023-07-29T00:00:53;17.90;99.90
1351;DHT22;669;50.206;9.998;2023-07-29T00:03:23;17.90;99.90
1351;DHT22;669;50.206;9.998;2023-07-29T00:05:51;17.90;99.90
1351;DHT22;669;50.206;9.998;2023-07-29T00:08:19;17.90;99.90
1351;DHT22;669;50.206;9.998;2023-07-29T00:10:48;17.90;99.90
1351;DHT22;669;50.206;9.998;2023-07-29T00:13:16;17.80;99.90
1351;DHT22;669;50.206;9.998;2023-07-29T00:15:47;17.80;99.90
1351;DHT22;669;50.206;9.998;2023-07-29T00:18:15;17.80;99.90
1351;DHT22;669;50.206;9.998;2023-07-29T00:20:44;17.80;99.90
1351;DHT22;669;50.206;9.998;2023-07-29T00:23:12;17.80;99.90
1351;DHT22;669;50.206;9.998;2023-07-29T00:25:40;17.80;99.90
1351;DHT22;669;50.206;9.998;2023-07-29T00:28:09;17.70;99.90
1351;DHT22;669;50.206;9.998;2023-07-29T00:30:37;17.70;99.90
1351;DHT22;669;50.206;9.998;2023-07-29T00:33:05;17.80;99.90
1351;DHT22;669;50.206;9.998;2023-07-29T00:35:34;17.70;99.90
1351;DHT22;669;50.206;9.998;2023-07-29T00:38:02;17.70;99.90
1351;DHT22;669;50.206;9.998;2023-07-29T00:40:31;17.70;99.90
1351;DHT22;669;50.206;9.998;2023-07-29T00:43:02;17.70;99.90
1351;DHT22;669;50.206;9.998;2023-07-29T00:45:32;17.70;99.90
1351;DHT22;669;50.206;9.998;2023-07-29T00:48:01;17.70;99.90
1351;DHT22;669;50.206;9.998;2023-07-29T00:50:30;17.70;99.90
1351;DHT22;669;50.206;9.998;2023-07-29T00:52:58;17.70;99.90
1351;DHT22;669;50.206;9.998;2023-07-29T00:55:27;17.70;99.90
1351;DHT22;669;50.206;9.998;2023-07-29T00:57:56;17.70;99.90
1351;DHT22;669;50.206;9.998;2023-07-29T01:00:25;17.70;99.90
1351;DHT22;669;50.206;9.998;2023-07-29T01:02:54;17.60;99.90
1351;DHT22;669;50.206;9.998;2023-07-29T01:05:26;17.60;99.90
1351;DHT22;669;50.206;9.998;2023-07-29T01:08:02;17.60;99.90
1351;DHT22;669;50.206;9.998;2023-07-29T01:10:40;17.60;99.90
1351;DHT22;669;50.206;9.998;2023-07-29T01:13:16;17.60;99.90
1351;DHT22;669;50.206;9.998;2023-07-29T01:15:50;17.60;99.90
1351;DHT22;669;50.206;9.998;2023-07-29T01:18:23;17.60;99.90
1351;DHT22;669;50.206;9.998;2023-07-29T01:20:56;17.60;99.90
1351;DHT22;669;50.206;9.998;2023-07-29T01:23:29;17.50;99.90
1351;DHT22;669;50.206;9.998;2023-07-29T01:25:57;17.50;99.90
1351;DHT22;669;50.206;9.998;2023-07-29T01:28:25;17.50;99.90
1351;DHT22;669;50.206;9.998;2023-07-29T01:30:58;17.50;99.90
1351;DHT22;669;50.206;9.998;2023-07-29T01:33:31;17.50;99.90
1351;DHT22;669;50.206;9.998;2023-07-29T01:36:03;17.50;99.90
1351;DHT22;669;50.206;9.998;2023-07-29T01:38:35;17.50;99.90
1351;DHT22;669;50.206;9.998;2023-07-29T01:41:06;17.50;99.90
1351;DHT22;669;50.206;9.998;2023-07-29T01:43:35;17.50;99.90
1351;DHT22;669;50.206;9.998;2023-07-29T01:46:09;17.50;99.90
1351;DHT22;669;50.206;9.998;2023-07-29T01:48:37;17.50;99.90
1351;DHT22;669;50.206;9.998;2023-07-29T01:51:06;17.50;99.90
1351;DHT22;669;50.206;9.998;2023-07-29T01:53:35;17.50;99.90
1351;DHT22;669;50.206;9.998;2023-07-29T01:56:03;17.50;99.90
1351;DHT22;669;50.206;9.998;2023-07-29T01:58:31;17.50;99.90
1351;DHT22;669;50.206;9.998;2023-07-29T02:00:59;17.40;99.90
1351;DHT22;669;50.206;9.998;2023-07-29T02:03:27;17.40;99.90
1351;DHT22;669;50.206;9.998;2023-07-29T02:05:55;17.30;99.90
1351;DHT22;669;50.206;9.998;2023-07-29T02:08:23;17.20;99.90
1351;DHT22;669;50.206;9.998;2023-07-29T02:10:52;17.20;99.90
1351;DHT22;669;50.206;9.998;2023-07-29T02:13:20;17.20;99.90
1351;DHT22;669;50.206;9.998;2023-07-29T02:15:48;17.10;99.90
1351;DHT22;669;50.206;9.998;2023-07-29T02:18:16;17.10;99.90
1351;DHT22;669;50.206;9.998;2023-07-29T02:20:44;17.10;99.90
1351;DHT22;669;50.206;9.998;2023-07-29T02:23:16;17.10;99.90
1351;DHT22;669;50.206;9.998;2023-07-29T02:25:44;17.10;99.90
1351;DHT22;669;50.206;9.998;2023-07-29T02:28:14;17.10;99.90
1351;DHT22;669;50.206;9.998;2023-07-29T02:30:42;17.10;99.90
1351;DHT22;669;50.206;9.998;2023-07-29T02:33:11;17.10;99.90
1351;DHT22;669;50.206;9.998;2023-07-29T02:35:40;17.00;99.90
1351;DHT22;669;50.206;9.998;2023-07-29T02:38:08;17.00;99.90
1351;DHT22;669;50.206;9.998;2023-07-29T02:40:36;17.00;99.90
1351;DHT22;669;50.206;9.998;2023-07-29T02:43:05;17.00;99.90
1351;DHT22;669;50.206;9.998;2023-07-29T02:45:34;17.00;99.90
1351;DHT22;669;50.206;9.998;2023-07-29T02:48:02;17.00;99.90
1351;DHT22;669;50.206;9.998;2023-07-29T02:50:30;17.00;99.90
1351;DHT22;669;50.206;9.998;2023-07-29T02:52:58;17.00;99.90
1351;DHT22;669;50.206;9.998;2023-07-29T02:55:27;16.90;99.90
1351;DHT22;669;50.206;9.998;2023-07-29T02:57:55;16.90;99.90
1351;DHT22;669;50.206;9.998;2023-07-29T03:00:23;17.00;99.90
1351;DHT22;669;50.206;9.998;2023-07-29T03:02:52;17.00;99.90
1351;DHT22;669;50.206;9.998;2023-07-29T03:05:21;17.00;99.90
1351;DHT22;669;50.206;9.998;2023-07-29T03:07:48;17.00;99.90
1351;DHT22;669;50.206;9.998;2023-07-29T03:10:17;17.10;99.90
1351;DHT22;669;50.206;9.998;2023-07-29T03:12:44;17.10;99.90
1351;DHT22;669;50.206;9.998;2023-07-29T03:15:13;17.10;99.90
1351;DHT22;669;50.206;9.998;2023-07-29T03:17:41;17.10;99.90
1351;DHT22;669;50.206;9.998;2023-07-29T03:20:10;17.20;99.90
1351;DHT22;669;50.206;9.998;2023-07-29T03:22:38;17.20;99.90
1351;DHT22;669;50.206;9.998;2023-07-29T03:25:07;17.20;99.90
1351;DHT22;669;50.206;9.998;2023-07-29T03:27:35;17.20;99.90
1351;DHT22;669;50.206;9.998;2023-07-29T03:30:04;17.20;99.90
1351;DHT22;669;50.206;9.998;2023-07-29T03:32:32;17.20;99.90
1351;DHT22;669;50.206;9.998;2023-07-29T03:35:00;17.10;99.90
1351;DHT22;669;50.206;9.998;2023-07-29T03:37:30;17.10;99.90
1351;DHT22;669;50.206;9.998;2023-07-29T03:39:58;17.10;99.90
1351;DHT22;669;50.206;9.998;2023-07-29T03:42:30;17.20;99.90
1351;DHT22;669;50.206;9.998;2023-07-29T03:44:58;17.20;99.90
1351;DHT22;669;50.206;9.998;2023-07-29T03:47:26;17.20;99.90
1351;DHT22;669;50.206;9.998;2023-07-29T03:49:54;17.20;99.90
1351;DHT22;669;50.206;9.998;2023-07-29T03:52:22;17.20;99.90
1351;DHT22;669;50.206;9.998;2023-07-29T03:54:52;17.20;99.90
1351;DHT22;669;50.206;9.998;2023-07-29T03:57:20;17.20;99.90
1351;DHT22;669;50.206;9.998;2023-07-29T03:59:47;17.20;99.90
1351;DHT22;669;50.206;9.998;2023-07-29T04:02:15;17.20;99.90
1351;DHT22;669;50.206;9.998;2023-07-29T04:04:43;17.30;99.90
1351;DHT22;669;50.206;9.998;2023-07-29T04:07:14;17.30;99.90
1351;DHT22;669;50.206;9.998;2023-07-29T04:09:42;17.30;99.90
1351;DHT22;669;50.206;9.998;2023-07-29T04:12:12;17.30;99.90
1351;DHT22;669;50.206;9.998;2023-07-29T04:14:40;17.30;99.90
1351;DHT22;669;50.206;9.998;2023-07-29T04:17:08;17.30;99.90
1351;DHT22;669;50.206;9.998;2023-07-29T04:19:36;17.40;99.90
1351;DHT22;669;50.206;9.998;2023-07-29T04:22:04;17.40;99.90
1351;DHT22;669;50.206;9.998;2023-07-29T04:24:32;17.40;99.90
1351;DHT22;669;50.206;9.998;2023-07-29T04:27:00;17.40;99.90
1351;DHT22;669;50.206;9.998;2023-07-29T04:29:30;17.40;99.90
1351;DHT22;669;50.206;9.998;2023-07-29T04:31:58;17.50;99.90
1351;DHT22;669;50.206;9.998;2023-07-29T04:34:28;17.50;99.90
1351;DHT22;669;50.206;9.998;2023-07-29T04:36:56;17.50;99.90
1351;DHT22;669;50.206;9.998;2023-07-29T04:39:24;17.50;99.90
1351;DHT22;669;50.206;9.998;2023-07-29T04:41:52;17.50;99.90
1351;DHT22;669;50.206;9.998;2023-07-29T04:44:20;17.50;99.90
1351;DHT22;669;50.206;9.998;2023-07-29T04:46:49;17.40;99.90
1351;DHT22;669;50.206;9.998;2023-07-29T04:49:17;17.40;99.90
1351;DHT22;669;50.206;9.998;2023-07-29T04:51:45;17.30;99.90
1351;DHT22;669;50.206;9.998;2023-07-29T04:54:13;17.30;99.90
1351;DHT22;669;50.206;9.998;2023-07-29T04:56:41;17.20;99.90
1351;DHT22;669;50.206;9.998;2023-07-29T04:59:09;17.20;99.90
1351;DHT22;669;50.206;9.998;2023-07-29T05:01:39;17.20;99.90
1351;DHT22;669;50.206;9.998;2023-07-29T05:04:10;17.10;99.90
1351;DHT22;669;50.206;9.998;2023-07-29T05:06:38;17.10;99.90
1351;DHT22;669;50.206;9.998;2023-07-29T05:09:13;17.10;99.90
1351;DHT22;669;50.206;9.998;2023-07-29T05:11:42;17.10;99.90
1351;DHT22;669;50.206;9.998;2023-07-29T05:14:13;17.20;99.90
1351;DHT22;669;50.206;9.998;2023-07-29T05:16:41;17.20;99.90
1351;DHT22;669;50.206;9.998;2023-07-29T05:19:11;17.20;99.90
1351;DHT22;669;50.206;9.998;2023-07-29T05:21:39;17.30;99.90
1351;DHT22;669;50.206;9.998;2023-07-29T05:24:07;17.20;99.90
1351;DHT22;669;50.206;9.998;2023-07-29T05:26:35;17.20;99.90
1351;DHT22;669;50.206;9.998;2023-07-29T05:29:03;17.20;99.90
1351;DHT22;669;50.206;9.998;2023-07-29T05:31:31;17.30;99.90
1351;DHT22;669;50.206;9.998;2023-07-29T05:33:59;17.30;99.90
1351;DHT22;669;50.206;9.998;2023-07-29T05:36:29;17.30;99.90
1351;DHT22;669;50.206;9.998;2023-07-29T05:38:57;17.30;99.90
1351;DHT22;669;50.206;9.998;2023-07-29T05:41:25;17.30;99.90
1351;DHT22;669;50.206;9.998;2023-07-29T05:43:54;17.40;99.90
1351;DHT22;669;50.206;9.998;2023-07-29T05:46:22;17.40;99.90
1351;DHT22;669;50.206;9.998;2023-07-29T05:48:50;17.40;99.90
1351;DHT22;669;50.206;9.998;2023-07-29T05:51:18;17.50;99.90
1351;DHT22;669;50.206;9.998;2023-07-29T05:53:47;17.50;99.90
1351;DHT22;669;50.206;9.998;2023-07-29T05:56:15;17.50;99.90
1351;DHT22;669;50.206;9.998;2023-07-29T05:58:43;17.50;99.90
1351;DHT22;669;50.206;9.998;2023-07-29T06:01:11;17.50;99.90
1351;DHT22;669;50.206;9.998;2023-07-29T06:03:39;17.60;99.90
1351;DHT22;669;50.206;9.998;2023-07-29T06:06:08;17.60;99.90
1351;DHT22;669;50.206;9.998;2023-07-29T06:08:36;17.50;99.90
1351;DHT22;669;50.206;9.998;2023-07-29T06:11:05;17.50;99.90
1351;DHT22;669;50.206;9.998;2023-07-29T06:13:33;17.50;99.90
1351;DHT22;669;50.206;9.998;2023-07-29T06:16:01;17.50;99.90
1351;DHT22;669;50.206;9.998;2023-07-29T06:18:30;17.50;99.90
1351;DHT22;669;50.206;9.998;2023-07-29T06:20:58;17.50;99.90
1351;DHT22;669;50.206;9.998;2023-07-29T06:23:26;17.50;99.90
1351;DHT22;669;50.206;9.998;2023-07-29T06:25:54;17.60;99.90
1351;DHT22;669;50.206;9.998;2023-07-29T06:28:23;17.60;99.90
1351;DHT22;669;50.206;9.998;2023-07-29T06:30:51;17.70;99.90
1351;DHT22;669;50.206;9.998;2023-07-29T06:33:19;17.70;99.90
1351;DHT22;669;50.206;9.998;2023-07-29T06:35:47;17.70;99.90
1351;DHT22;669;50.206;9.998;2023-07-29T06:38:15;17.80;99.90
1351;DHT22;669;50.206;9.998;2023-07-29T06:40:48;17.80;99.90
1351;DHT22;669;50.206;9.998;2023-07-29T06:43:16;17.80;99.90
1351;DHT22;669;50.206;9.998;2023-07-29T06:45:45;17.90;99.90
1351;DHT22;669;50.206;9.998;2023-07-29T06:48:13;18.00;99.90
1351;DHT22;669;50.206;9.998;2023-07-29T06:50:41;18.10;99.90
1351;DHT22;669;50.206;9.998;2023-07-29T06:53:09;18.20;99.90
1351;DHT22;669;50.206;9.998;2023-07-29T06:55:37;18.20;99.90
1351;DHT22;669;50.206;9.998;2023-07-29T06:58:05;18.30;99.90
1351;DHT22;669;50.206;9.998;2023-07-29T07:00:34;18.40;99.90
1351;DHT22;669;50.206;9.998;2023-07-29T07:03:03;18.30;99.90
1351;DHT22;669;50.206;9.998;2023-07-29T07:05:31;18.40;99.90
1351;DHT22;669;50.206;9.998;2023-07-29T07:07:59;18.40;99.90
1351;DHT22;669;50.206;9.998;2023-07-29T07:10:27;18.30;99.90
1351;DHT22;669;50.206;9.998;2023-07-29T07:12:55;18.30;99.90
1351;DHT22;669;50.206;9.998;2023-07-29T07:15:23;18.30;99.90
1351;DHT22;669;50.206;9.998;2023-07-29T07:17:51;18.30;99.90
1351;DHT22;669;50.206;9.998;2023-07-29T07:20:20;18.30;99.90
1351;DHT22;669;50.206;9.998;2023-07-29T07:22:48;18.30;99.90
1351;DHT22;669;50.206;9.998;2023-07-29T07:25:16;18.30;99.90
1351;DHT22;669;50.206;9.998;2023-07-29T07:27:44;18.20;99.90
1351;DHT22;669;50.206;9.998;2023-07-29T07:30:12;18.20;99.90
1351;DHT22;669;50.206;9.998;2023-07-29T07:32:40;18.30;99.90
1351;DHT22;669;50.206;9.998;2023-07-29T07:35:08;18.30;99.90
1351;DHT22;669;50.206;9.998;2023-07-29T07:37:38;18.30;99.90
1351;DHT22;669;50.206;9.998;2023-07-29T07:40:07;18.30;99.90
1351;DHT22;669;50.206;9.998;2023-07-29T07:42:35;18.30;99.90
1351;DHT22;669;50.206;9.998;2023-07-29T07:45:04;18.30;99.90
1351;DHT22;669;50.206;9.998;2023-07-29T07:47:32;18.40;99.90
1351;DHT22;669;50.206;9.998;2023-07-29T07:50:00;18.40;99.90
1351;DHT22;669;50.206;9.998;2023-07-29T07:52:28;18.40;99.90
1351;DHT22;669;50.206;9.998;2023-07-29T07:54:57;18.50;99.90
1351;DHT22;669;50.206;9.998;2023-07-29T07:57:25;18.50;99.90
1351;DHT22;669;50.206;9.998;2023-07-29T07:59:53;18.50;99.90
1351;DHT22;669;50.206;9.998;2023-07-29T08:02:21;18.60;99.90
1351;DHT22;669;50.206;9.998;2023-07-29T08:04:49;18.60;99.90
1351;DHT22;669;50.206;9.998;2023-07-29T08:07:17;18.60;99.90
1351;DHT22;669;50.206;9.998;2023-07-29T08:09:45;18.60;99.90
1351;DHT22;669;50.206;9.998;2023-07-29T08:12:14;18.60;99.90
1351;DHT22;669;50.206;9.998;2023-07-29T08:14:45;18.60;99.90
1351;DHT22;669;50.206;9.998;2023-07-29T08:17:13;18.50;99.90
1351;DHT22;669;50.206;9.998;2023-07-29T08:19:41;18.50;99.90
1351;DHT22;669;50.206;9.998;2023-07-29T08:22:09;18.40;99.90
1351;DHT22;669;50.206;9.998;2023-07-29T08:24:39;18.40;99.90
1351;DHT22;669;50.206;9.998;2023-07-29T08:27:07;18.30;99.90
1351;DHT22;669;50.206;9.998;2023-07-29T08:29:36;18.30;99.90
1351;DHT22;669;50.206;9.998;2023-07-29T08:32:04;18.20;99.90
1351;DHT22;669;50.206;9.998;2023-07-29T08:34:32;18.20;99.90
1351;DHT22;669;50.206;9.998;2023-07-29T08:37:00;18.20;99.90
1351;DHT22;669;50.206;9.998;2023-07-29T08:39:28;18.10;99.90
1351;DHT22;669;50.206;9.998;2023-07-29T08:42:02;18.10;99.90
1351;DHT22;669;50.206;9.998;2023-07-29T08:44:39;18.10;99.90
1351;DHT22;669;50.206;9.998;2023-07-29T08:47:07;18.10;99.90
1351;DHT22;669;50.206;9.998;2023-07-29T08:49:36;18.00;99.90
1351;DHT22;669;50.206;9.998;2023-07-29T08:52:05;18.00;99.90
1351;DHT22;669;50.206;9.998;2023-07-29T08:54:34;18.00;99.90
1351;DHT22;669;50.206;9.998;2023-07-29T08:57:03;17.90;99.90
1351;DHT22;669;50.206;9.998;2023-07-29T08:59:33;17.90;99.90
1351;DHT22;669;50.206;9.998;2023-07-29T09:02:02;17.90;99.90
1351;DHT22;669;50.206;9.998;2023-07-29T09:04:30;17.90;99.90
1351;DHT22;669;50.206;9.998;2023-07-29T09:06:59;17.90;99.90
1351;DHT22;669;50.206;9.998;2023-07-29T09:09:27;18.00;99.90
1351;DHT22;669;50.206;9.998;2023-07-29T09:11:55;18.00;99.90
1351;DHT22;669;50.206;9.998;2023-07-29T09:14:23;18.10;99.90
1351;DHT22;669;50.206;9.998;2023-07-29T09:16:52;18.20;99.90
1351;DHT22;669;50.206;9.998;2023-07-29T09:19:25;18.30;99.90
1351;DHT22;669;50.206;9.998;2023-07-29T09:21:53;18.30;99.90
1351;DHT22;669;50.206;9.998;2023-07-29T09:24:21;18.30;99.90
1351;DHT22;669;50.206;9.998;2023-07-29T09:26:49;18.30;99.90
1351;DHT22;669;50.206;9.998;2023-07-29T09:29:22;18.30;99.90
1351;DHT22;669;50.206;9.998;2023-07-29T09:31:50;18.30;99.90
1351;DHT22;669;50.206;9.998;2023-07-29T09:34:18;18.30;99.90
1351;DHT22;669;50.206;9.998;2023-07-29T09:36:50;18.40;99.90
1351;DHT22;669;50.206;9.998;2023-07-29T09:39:18;18.40;99.90
1351;DHT22;669;50.206;9.998;2023-07-29T09:41:47;18.70;99.90
1351;DHT22;669;50.206;9.998;2023-07-29T09:44:16;18.80;99.90
1351;DHT22;669;50.206;9.998;2023-07-29T09:46:46;19.10;99.90
1351;DHT22;669;50.206;9.998;2023-07-29T09:49:14;19.20;99.90
1351;DHT22;669;50.206;9.998;2023-07-29T09:51:42;19.30;99.90
1351;DHT22;669;50.206;9.998;2023-07-29T09:54:12;19.40;99.90
1351;DHT22;669;50.206;9.998;2023-07-29T09:56:43;19.50;99.90
1351;DHT22;669;50.206;9.998;2023-07-29T09:59:11;19.60;99.90
1351;DHT22;669;50.206;9.998;2023-07-29T10:01:40;19.80;99.90
1351;DHT22;669;50.206;9.998;2023-07-29T10:04:09;20.10;99.90
1351;DHT22;669;50.206;9.998;2023-07-29T10:06:41;20.30;99.90
1351;DHT22;669;50.206;9.998;2023-07-29T10:09:12;20.60;99.90
1351;DHT22;669;50.206;9.998;2023-07-29T10:11:41;20.90;99.90
1351;DHT22;669;50.206;9.998;2023-07-29T10:14:09;21.20;99.90
1351;DHT22;669;50.206;9.998;2023-07-29T10:16:40;21.30;99.90
1351;DHT22;669;50.206;9.998;2023-07-29T10:19:09;21.50;99.90
1351;DHT22;669;50.206;9.998;2023-07-29T10:21:38;22.00;98.60
1351;DHT22;669;50.206;9.998;2023-07-29T10:24:14;22.30;96.40
1351;DHT22;669;50.206;9.998;2023-07-29T10:26:45;22.50;98.20
1351;DHT22;669;50.206;9.998;2023-07-29T10:29:14;22.80;94.20
1351;DHT22;669;50.206;9.998;2023-07-29T10:31:47;23.10;94.70
1351;DHT22;669;50.206;9.998;2023-07-29T10:34:15;23.60;93.40
1351;DHT22;669;50.206;9.998;2023-07-29T10:36:43;23.80;89.40
1351;DHT22;669;50.206;9.998;2023-07-29T10:39:11;23.90;91.10
1351;DHT22;669;50.206;9.998;2023-07-29T10:41:56;24.10;90.90
1351;DHT22;669;50.206;9.998;2023-07-29T10:44:45;24.20;83.20
1351;DHT22;669;50.206;9.998;2023-07-29T10:47:17;24.10;78.10
1351;DHT22;669;50.206;9.998;2023-07-29T10:49:46;24.20;80.80
1351;DHT22;669;50.206;9.998;2023-07-29T10:52:16;24.30;79.00
1351;DHT22;669;50.206;9.998;2023-07-29T10:54:45;24.50;79.50
1351;DHT22;669;50.206;9.998;2023-07-29T10:57:15;24.50;75.30
1351;DHT22;669;50.206;9.998;2023-07-29T10:59:54;24.40;82.30
1351;DHT22;669;50.206;9.998;2023-07-29T11:02:28;24.30;82.30
1351;DHT22;669;50.206;9.998;2023-07-29T11:04:57;24.00;81.10
1351;DHT22;669;50.206;9.998;2023-07-29T11:07:26;23.90;78.70
1351;DHT22;669;50.206;9.998;2023-07-29T11:10:02;23.70;80.00
1351;DHT22;669;50.206;9.998;2023-07-29T11:12:43;23.60;82.50
1351;DHT22;669;50.206;9.998;2023-07-29T11:15:15;23.90;76.50
1351;DHT22;669;50.206;9.998;2023-07-29T11:17:45;24.20;73.20
1351;DHT22;669;50.206;9.998;2023-07-29T11:20:15;24.30;79.80
1351;DHT22;669;50.206;9.998;2023-07-29T11:22:44;24.50;73.50
1351;DHT22;669;50.206;9.998;2023-07-29T11:25:13;24.60;69.50
1351;DHT22;669;50.206;9.998;2023-07-29T11:27:43;24.60;72.90
1351;DHT22;669;50.206;9.998;2023-07-29T11:30:12;24.80;63.70
1351;DHT22;669;50.206;9.998;2023-07-29T11:32:42;24.70;66.70
1351;DHT22;669;50.206;9.998;2023-07-29T11:35:11;24.80;67.40
1351;DHT22;669;50.206;9.998;2023-07-29T11:37:43;24.80;70.80
1351;DHT22;669;50.206;9.998;2023-07-29T11:40:14;25.10;63.90
1351;DHT22;669;50.206;9.998;2023-07-29T11:42:45;25.20;59.20
1351;DHT22;669;50.206;9.998;2023-07-29T11:45:14;24.80;58.00
1351;DHT22;669;50.206;9.998;2023-07-29T11:47:44;24.60;63.30
1351;DHT22;669;50.206;9.998;2023-07-29T11:50:13;24.70;58.60
1351;DHT22;669;50.206;9.998;2023-07-29T11:52:43;24.60;64.20
1351;DHT22;669;50.206;9.998;2023-07-29T11:55:13;24.70;65.10
1351;DHT22;669;50.206;9.998;2023-07-29T11:57:44;24.50;64.30
1351;DHT22;669;50.206;9.998;2023-07-29T12:00:12;24.50;64.30
1351;DHT22;669;50.206;9.998;2023-07-29T12:02:42;25.00;60.10
1351;DHT22;669;50.206;9.998;2023-07-29T12:05:13;25.30;56.90
1351;DHT22;669;50.206;9.998;2023-07-29T12:07:43;25.50;57.40
1351;DHT22;669;50.206;9.998;2023-07-29T12:10:12;25.80;59.10
1351;DHT22;669;50.206;9.998;2023-07-29T12:12:46;26.10;56.50
1351;DHT22;669;50.206;9.998;2023-07-29T12:15:22;26.50;53.80
1351;DHT22;669;50.206;9.998;2023-07-29T12:17:53;26.70;45.60
1351;DHT22;669;50.206;9.998;2023-07-29T12:20:24;26.50;47.30
1351;DHT22;669;50.206;9.998;2023-07-29T12:22:53;26.30;51.70
1351;DHT22;669;50.206;9.998;2023-07-29T12:25:22;26.50;52.10
1351;DHT22;669;50.206;9.998;2023-07-29T12:27:51;26.70;50.50
1351;DHT22;669;50.206;9.998;2023-07-29T12:30:22;27.00;43.70
1351;DHT22;669;50.206;9.998;2023-07-29T12:32:51;26.70;39.90
1351;DHT22;669;50.206;9.998;2023-07-29T12:35:19;26.70;42.80
1351;DHT22;669;50.206;9.998;2023-07-29T12:37:58;26.70;40.60
1351;DHT22;669;50.206;9.998;2023-07-29T12:40:26;26.40;46.00
1351;DHT22;669;50.206;9.998;2023-07-29T12:42:56;26.40;45.30
1351;DHT22;669;50.206;9.998;2023-07-29T12:45:24;26.60;41.90
1351;DHT22;669;50.206;9.998;2023-07-29T12:47:54;26.80;38.10
1351;DHT22;669;50.206;9.998;2023-07-29T12:50:22;26.70;35.80
1351;DHT22;669;50.206;9.998;2023-07-29T12:52:50;26.30;39.60
1351;DHT22;669;50.206;9.998;2023-07-29T12:55:18;26.00;40.50
1351;DHT22;669;50.206;9.998;2023-07-29T12:57:49;25.70;37.40
1351;DHT22;669;50.206;9.998;2023-07-29T13:00:19;25.50;42.00
1351;DHT22;669;50.206;9.998;2023-07-29T13:02:47;25.30;41.20
1351;DHT22;669;50.206;9.998;2023-07-29T13:05:15;25.10;42.90
1351;DHT22;669;50.206;9.998;2023-07-29T13:07:43;25.00;41.40
1351;DHT22;669;50.206;9.998;2023-07-29T13:10:11;24.80;42.00
1351;DHT22;669;50.206;9.998;2023-07-29T13:12:40;24.70;44.30
1351;DHT22;669;50.206;9.998;2023-07-29T13:15:08;24.80;46.40
1351;DHT22;669;50.206;9.998;2023-07-29T13:17:38;24.80;44.80
1351;DHT22;669;50.206;9.998;2023-07-29T13:20:08;24.80;39.50
1351;DHT22;669;50.206;9.998;2023-07-29T13:22:36;24.70;41.00
1351;DHT22;669;50.206;9.998;2023-07-29T13:25:04;24.50;41.20
1351;DHT22;669;50.206;9.998;2023-07-29T13:27:32;24.30;44.00
1351;DHT22;669;50.206;9.998;2023-07-29T13:30:00;24.10;46.20
1351;DHT22;669;50.206;9.998;2023-07-29T13:32:28;24.00;47.40
1351;DHT22;669;50.206;9.998;2023-07-29T13:34:57;24.00;49.60
1351;DHT22;669;50.206;9.998;2023-07-29T13:37:25;23.90;46.50
1351;DHT22;669;50.206;9.998;2023-07-29T13:39:53;23.80;48.90
1351;DHT22;669;50.206;9.998;2023-07-29T13:42:21;23.60;53.80
1351;DHT22;669;50.206;9.998;2023-07-29T13:44:49;23.30;60.30
1351;DHT22;669;50.206;9.998;2023-07-29T13:47:17;23.00;64.10
1351;DHT22;669;50.206;9.998;2023-07-29T13:49:45;22.80;72.50
1351;DHT22;669;50.206;9.998;2023-07-29T13:52:14;22.60;78.10
1351;DHT22;669;50.206;9.998;2023-07-29T13:54:42;22.60;78.30
1351;DHT22;669;50.206;9.998;2023-07-29T13:57:10;22.50;80.20
1351;DHT22;669;50.206;9.998;2023-07-29T13:59:38;22.40;78.80
1351;DHT22;669;50.206;9.998;2023-07-29T14:02:06;22.40;81.30
1351;DHT22;669;50.206;9.998;2023-07-29T14:04:34;22.70;77.80
1351;DHT22;669;50.206;9.998;2023-07-29T14:07:03;23.20;80.70
1351;DHT22;669;50.206;9.998;2023-07-29T14:09:33;24.00;75.20
1351;DHT22;669;50.206;9.998;2023-07-29T14:12:01;24.50;61.90
1351;DHT22;669;50.206;9.998;2023-07-29T14:14:29;24.90;53.90
1351;DHT22;669;50.206;9.998;2023-07-29T14:16:57;25.00;51.10
1351;DHT22;669;50.206;9.998;2023-07-29T14:19:25;25.10;50.00
1351;DHT22;669;50.206;9.998;2023-07-29T14:21:52;25.30;49.60
1351;DHT22;669;50.206;9.998;2023-07-29T14:24:20;25.50;48.50
1351;DHT22;669;50.206;9.998;2023-07-29T14:26:50;25.80;47.00
1351;DHT22;669;50.206;9.998;2023-07-29T14:29:18;26.10;45.30
1351;DHT22;669;50.206;9.998;2023-07-29T14:31:46;26.20;45.40
1351;DHT22;669;50.206;9.998;2023-07-29T14:34:14;26.40;38.00
1351;DHT22;669;50.206;9.998;2023-07-29T14:36:42;26.50;36.90
1351;DHT22;669;50.206;9.998;2023-07-29T14:39:10;26.50;35.70
1351;DHT22;669;50.206;9.998;2023-07-29T14:41:38;26.50;37.80
1351;DHT22;669;50.206;9.998;2023-07-29T14:44:07;26.60;37.40
1351;DHT22;669;50.206;9.998;2023-07-29T14:46:35;26.60;37.00
1351;DHT22;669;50.206;9.998;2023-07-29T14:49:04;26.60;35.80
1351;DHT22;669;50.206;9.998;2023-07-29T14:51:32;26.30;38.00
1351;DHT22;669;50.206;9.998;2023-07-29T14:54:00;25.80;37.70
1351;DHT22;669;50.206;9.998;2023-07-29T14:56:28;25.30;39.40
1351;DHT22;669;50.206;9.998;2023-07-29T14:58:55;24.80;42.20
1351;DHT22;669;50.206;9.998;2023-07-29T15:01:25;24.50;44.10
1351;DHT22;669;50.206;9.998;2023-07-29T15:03:53;24.30;47.40
1351;DHT22;669;50.206;9.998;2023-07-29T15:06:21;24.00;48.90
1351;DHT22;669;50.206;9.998;2023-07-29T15:08:49;23.80;49.30
1351;DHT22;669;50.206;9.998;2023-07-29T15:11:17;23.70;51.40
1351;DHT22;669;50.206;9.998;2023-07-29T15:13:45;23.50;52.00
1351;DHT22;669;50.206;9.998;2023-07-29T15:16:13;23.40;53.90
1351;DHT22;669;50.206;9.998;2023-07-29T15:18:42;23.30;54.60
1351;DHT22;669;50.206;9.998;2023-07-29T15:21:10;23.30;55.30
1351;DHT22;669;50.206;9.998;2023-07-29T15:23:38;23.20;57.60
1351;DHT22;669;50.206;9.998;2023-07-29T15:26:06;23.10;59.70
1351;DHT22;669;50.206;9.998;2023-07-29T15:28:34;23.10;62.80
1351;DHT22;669;50.206;9.998;2023-07-29T15:31:02;23.20;62.10
1351;DHT22;669;50.206;9.998;2023-07-29T15:33:30;23.30;58.20
1351;DHT22;669;50.206;9.998;2023-07-29T15:36:02;23.20;57.80
1351;DHT22;669;50.206;9.998;2023-07-29T15:38:30;23.20;58.10
1351;DHT22;669;50.206;9.998;2023-07-29T15:40:59;23.10;59.30
1351;DHT22;669;50.206;9.998;2023-07-29T15:43:27;23.00;61.90
1351;DHT22;669;50.206;9.998;2023-07-29T15:45:55;23.00;64.70
1351;DHT22;669;50.206;9.998;2023-07-29T15:48:24;22.70;65.00
1351;DHT22;669;50.206;9.998;2023-07-29T15:50:52;22.70;66.60
1351;DHT22;669;50.206;9.998;2023-07-29T15:53:21;22.60;67.50
1351;DHT22;669;50.206;9.998;2023-07-29T15:55:50;22.60;68.10
1351;DHT22;669;50.206;9.998;2023-07-29T15:58:18;22.50;70.90
1351;DHT22;669;50.206;9.998;2023-07-29T16:00:46;22.40;75.00
1351;DHT22;669;50.206;9.998;2023-07-29T16:03:14;22.40;74.20
1351;DHT22;669;50.206;9.998;2023-07-29T16:05:42;22.40;73.30
1351;DHT22;669;50.206;9.998;2023-07-29T16:08:13;22.40;74.00
1351;DHT22;669;50.206;9.998;2023-07-29T16:10:43;22.60;74.90
1351;DHT22;669;50.206;9.998;2023-07-29T16:13:11;22.60;73.40
1351;DHT22;669;50.206;9.998;2023-07-29T16:15:44;22.70;74.80
1351;DHT22;669;50.206;9.998;2023-07-29T16:18:12;22.70;71.70
1351;DHT22;669;50.206;9.998;2023-07-29T16:20:40;22.60;70.40
1351;DHT22;669;50.206;9.998;2023-07-29T16:23:08;22.50;71.50
1351;DHT22;669;50.206;9.998;2023-07-29T16:25:36;22.50;70.30
1351;DHT22;669;50.206;9.998;2023-07-29T16:28:05;22.40;69.90